Time;durP1;ratioP1;P1;durP2;ratioP2;P2;SDS_P1;SDS_P2;PMS_P1;PMS_P2;Temp;Humidity;BMP_temperature;BMP_pressure;BME280_temperature;BME280_humidity;BME280_pressure;Samples;Min_cycle;Max_cycle;Signal;HPM_P1;HPM_P2
2022/04/08 00:00:18;;;;;;;2.35;1.05;;;;;;;;;;5025715;28;20041;-55
2022/04/08 00:02:44;;;;;;;4.07;1.27;;;;;;;;;;5026291;28;20575;-52
2022/04/08 00:05:26;;;;;;;2.78;0.75;;;;;;;;;;5025615;28;20033;-53
2022/04/08 00:08:31;;;;;;;2.38;1.00;;;;;;;;;;5024359;28;20080;-56
2022/04/08 00:11:06;;;;;;;2.00;0.88;;;;;;;;;;4964758;29;20045;-52
2022/04/08 00:13:52;;;;;;;2.67;0.80;;;;;;;;;;5015664;28;20038;-54
2022/04/08 00:19:41;;;;;;;2.72;1.20;;;;;;;;;;5024184;28;20057;-54
2022/04/08 00:22:11;;;;;;;3.95;1.38;;;;;;;;;;5025441;28;20694;-54
2022/04/08 00:24:56;;;;;;;4.00;0.80;;;;;;;;;;5025218;28;20026;-52
2022/04/08 00:30:37;;;;;;;2.53;0.68;;;;;;;;;;4964844;29;20040;-54
2022/04/08 00:33:28;;;;;;;3.22;1.25;;;;;;;;;;5025842;28;20022;-55
2022/04/08 00:36:12;;;;;;;;;;;;;;;;;;5025810;28;20087;-55
2022/04/08 00:38:45;;;;;;;2.83;0.82;;;;;;;;;;5023628;28;19905;-54
2022/04/08 00:41:55;;;;;;;3.78;1.20;;;;;;;;;;5024280;28;20052;-53
2022/04/08 00:44:41;;;;;;;4.45;1.30;;;;;;;;;;5009393;28;20045;-55
2022/04/08 00:47:23;;;;;;;4.43;1.95;;;;;;;;;;5024840;28;20037;-55
2022/04/08 00:50:22;;;;;;;1.58;0.73;;;;;;;;;;5024862;28;20183;-53
2022/04/08 00:55:54;;;;;;;4.78;1.08;;;;;;;;;;5025668;28;20123;-55
2022/04/08 00:58:42;;;;;;;3.53;0.82;;;;;;;;;;5024456;28;20028;-53
2022/04/08 01:01:18;;;;;;;3.35;0.65;;;;;;;;;;5025391;28;20033;-52
2022/04/08 01:06:41;;;;;;;3.10;0.82;;;;;;;;;;5011214;28;20034;-54
2022/04/08 01:13:12;;;;;;;3.83;1.17;;;;;;;;;;4948091;29;20104;-55
2022/04/08 01:22:06;;;;;;;2.33;0.70;;;;;;;;;;4955003;29;20067;-56
2022/04/08 01:27:37;;;;;;;1.65;0.45;;;;;;;;;;4909448;29;20036;-55
2022/04/08 01:35:57;;;;;;;2.47;0.75;;;;;;;;;;5023342;28;20030;-53
2022/04/08 01:38:45;;;;;;;0.82;0.40;;;;;;;;;;5026446;28;20033;-55
2022/04/08 01:41:31;;;;;;;3.03;0.90;;;;;;;;;;5027499;28;20069;-55
2022/04/08 01:44:27;;;;;;;1.80;0.63;;;;;;;;;;4976601;28;20665;-55
2022/04/08 01:47:08;;;;;;;1.17;0.50;;;;;;;;;;4974232;28;20043;-55
2022/04/08 01:50:20;;;;;;;;;;;;;;;;;;;;;
2022/04/08 01:53:19;;;;;;;;;;;;;;;;;;;;;
2022/04/08 01:55:56;;;;;;;2.75;0.77;;;;;;;;;;5027070;28;20061;-54
2022/04/08 01:58:35;;;;;;;2.42;0.95;;;;;;;;;;5025934;28;20117;-54
2022/04/08 02:04:27;;;;;;;5.05;0.93;;;;;;;;;;5023647;28;20033;-52
2022/04/08 02:06:58;;;;;;;4.35;1.27;;;;;;;;;;4985638;28;20038;-55
2022/04/08 02:09:25;;;;;;;1.88;0.73;;;;;;;;;;5024302;28;20137;-52
2022/04/08 02:12:24;;;;;;;3.50;0.85;;;;;;;;;;5027926;28;20025;-50
2022/04/08 02:15:09;;;;;;;2.97;0.90;;;;;;;;;;5027491;28;20029;-50
2022/04/08 02:18:01;;;;;;;2.38;0.77;;;;;;;;;;5017272;28;20038;-54
2022/04/08 02:20:31;;;;;;;2.88;1.05;;;;;;;;;;5007380;28;20034;-53
2022/04/08 02:23:16;;;;;;;3.47;1.10;;;;;;;;;;5025092;28;20152;-51
2022/04/08 02:32:41;;;;;;;;;;;;;;;;;;;;;
2022/04/08 02:35:10;;;;;;;2.28;0.80;;;;;;;;;;5025796;28;20156;-55
2022/04/08 02:40:48;;;;;;;2.63;1.13;;;;;;;;;;4988496;28;20105;-53
2022/04/08 02:43:18;;;;;;;3.20;1.10;;;;;;;;;;5025865;28;20101;-53
2022/04/08 02:49:07;;;;;;;1.58;0.70;;;;;;;;;;5020203;28;20026;-54
2022/04/08 02:54:52;;;;;;;4.25;1.15;;;;;;;;;;5025479;28;20037;-55
2022/04/08 02:57:47;;;;;;;;;;;;;;;;;;;;;
2022/04/08 03:00:27;;;;;;;1.20;0.65;;;;;;;;;;5022171;28;20133;-52
2022/04/08 03:12:06;;;;;;;1.80;0.73;;;;;;;;;;5016458;28;20110;-52
2022/04/08 03:14:45;;;;;;;5.18;0.95;;;;;;;;;;5008718;28;20030;-49
2022/04/08 03:17:45;;;;;;;2.42;0.90;;;;;;;;;;5025308;28;20049;-55
2022/04/08 03:20:39;;;;;;;1.73;0.65;;;;;;;;;;5026657;28;20030;-54
2022/04/08 03:23:27;;;;;;;4.13;0.80;;;;;;;;;;5026358;28;20030;-55
2022/04/08 03:26:29;;;;;;;1.73;0.90;;;;;;;;;;5000368;28;20064;-53
2022/04/08 03:29:12;;;;;;;2.13;0.98;;;;;;;;;;5025298;28;20033;-53
2022/04/08 03:32:06;;;;;;;3.75;1.15;;;;;;;;;;5018795;28;20025;-54
2022/04/08 03:38:14;;;;;;;1.65;0.73;;;;;;;;;;5019492;28;20061;-51
2022/04/08 03:41:15;;;;;;;1.00;0.38;;;;;;;;;;5001378;28;20139;-53
2022/04/08 03:44:04;;;;;;;2.50;0.63;;;;;;;;;;5025750;28;20126;-50
2022/04/08 03:46:53;;;;;;;3.83;0.93;;;;;;;;;;5015364;28;20443;-55
2022/04/08 03:49:27;;;;;;;6.68;0.98;;;;;;;;;;5021554;28;20431;-54
2022/04/08 03:52:29;;;;;;;5.35;1.15;;;;;;;;;;5032655;28;20088;-53
2022/04/08 03:55:01;;;;;;;3.28;0.80;;;;;;;;;;5018180;28;20041;-55
2022/04/08 03:58:06;;;;;;;6.10;1.02;;;;;;;;;;5026974;28;20056;-53
2022/04/08 04:04:08;;;;;;;4.35;1.05;;;;;;;;;;5032205;28;20044;-50
2022/04/08 04:06:51;;;;;;;;;;;;;;;;;;;;;
2022/04/08 04:09:17;;;;;;;1.98;0.52;;;;;;;;;;5021287;28;20375;-55
2022/04/08 04:12:10;;;;;;;1.48;0.82;;;;;;;;;;5028519;28;20064;-52
2022/04/08 04:15:20;;;;;;;4.70;0.80;;;;;;;;;;4974279;28;20057;-55
2022/04/08 04:18:09;;;;;;;4.22;1.02;;;;;;;;;;5018836;28;20476;-53
2022/04/08 04:26:58;;;;;;;3.67;1.38;;;;;;;;;;4925734;28;20043;-55
2022/04/08 04:32:56;;;;;;;2.83;1.15;;;;;;;;;;5008620;28;20621;-52
2022/04/08 04:36:14;;;;;;;1.70;0.70;;;;;;;;;;5008670;28;20034;-56
2022/04/08 04:41:51;;;;;;;1.58;0.82;;;;;;;;;;5029144;28;20052;-54
2022/04/08 04:44:34;;;;;;;;;;;;;;;;;;;;;
2022/04/08 04:47:17;;;;;;;2.35;0.75;;;;;;;;;;5032271;28;20574;-54
2022/04/08 04:49:58;;;;;;;3.08;0.93;;;;;;;;;;5035686;28;20632;-55
2022/04/08 04:55:46;;;;;;;5.03;1.48;;;;;;;;;;5037278;28;20025;-56
2022/04/08 04:58:39;;;;;;;5.90;1.67;;;;;;;;;;5028014;28;20132;-56
2022/04/08 05:01:14;;;;;;;4.03;1.13;;;;;;;;;;5024814;28;20043;-54
2022/04/08 05:03:56;;;;;;;5.75;1.05;;;;;;;;;;5035967;28;20033;-52
2022/04/08 05:06:35;;;;;;;6.93;0.75;;;;;;;;;;5028630;28;20441;-53
2022/04/08 05:09:30;;;;;;;1.55;0.60;;;;;;;;;;5035101;28;20420;-51
2022/04/08 05:15:38;;;;;;;2.20;0.55;;;;;;;;;;5031866;28;20041;-52
2022/04/08 05:21:31;;;;;;;2.00;0.75;;;;;;;;;;5034719;28;20032;-56
2022/04/08 05:24:22;;;;;;;3.33;0.95;;;;;;;;;;4973282;28;20526;-54
2022/04/08 05:27:07;;;;;;;3.70;0.77;;;;;;;;;;5034344;28;20034;-56
2022/04/08 05:30:03;;;;;;;2.65;0.70;;;;;;;;;;5012922;28;20542;-56
2022/04/08 05:35:31;;;;;;;4.55;1.35;;;;;;;;;;5032366;28;20044;-53
2022/04/08 05:38:36;;;;;;;3.90;1.17;;;;;;;;;;5034249;28;20028;-53
2022/04/08 05:41:21;;;;;;;3.80;1.02;;;;;;;;;;5015966;28;20032;-54
2022/04/08 05:43:56;;;;;;;3.67;0.95;;;;;;;;;;5034905;28;20087;-55
2022/04/08 05:46:28;;;;;;;4.82;1.05;;;;;;;;;;5027204;28;20061;-56
2022/04/08 05:54:58;;;;;;;6.03;0.98;;;;;;;;;;4933424;29;20134;-54
2022/04/08 05:57:43;;;;;;;3.08;1.95;;;;;;;;;;5020085;28;20091;-56
2022/04/08 06:00:29;;;;;;;4.70;1.13;;;;;;;;;;5028351;28;20132;-57
2022/04/08 06:03:13;;;;;;;4.70;0.90;;;;;;;;;;5014592;28;20491;-56
2022/04/08 06:05:42;;;;;;;4.45;0.73;;;;;;;;;;5033222;28;20034;-56
2022/04/08 06:11:46;;;;;;;1.65;0.60;;;;;;;;;;4979743;28;20031;-54
2022/04/08 06:14:26;;;;;;;1.20;0.50;;;;;;;;;;4979537;28;20370;-55
2022/04/08 06:17:04;;;;;;;8.32;1.13;;;;;;;;;;4979195;28;20045;-54
2022/04/08 06:19:49;;;;;;;;;;;;;;;;;;;;;
2022/04/08 06:22:34;;;;;;;8.30;1.20;;;;;;;;;;4978879;28;20046;-57
2022/04/08 06:25:00;;;;;;;3.63;1.08;;;;;;;;;;4951103;28;20489;-55
2022/04/08 06:27:36;;;;;;;2.90;1.05;;;;;;;;;;4972199;28;20074;-57
2022/04/08 06:33:33;;;;;;;1.23;0.65;;;;;;;;;;4960919;28;20073;-52
2022/04/08 06:36:11;;;;;;;3.80;0.60;;;;;;;;;;4995025;28;20149;-56
2022/04/08 06:38:48;;;;;;;;;;;;;;;;;;;;;
2022/04/08 06:41:45;;;;;;;4.40;0.95;;;;;;;;;;5033383;28;20504;-56
2022/04/08 06:44:21;;;;;;;2.70;1.23;;;;;;;;;;5033389;28;20036;-54
2022/04/08 06:53:11;;;;;;;2.72;1.00;;;;;;;;;;5009572;28;20045;-56
2022/04/08 06:55:49;;;;;;;2.90;1.05;;;;;;;;;;5034545;28;20121;-56
2022/04/08 07:01:19;;;;;;;2.05;0.85;;;;;;;;;;5033103;28;20056;-55
2022/04/08 07:04:03;;;;;;;1.90;0.47;;;;;;;;;;5031735;28;20133;-56
2022/04/08 07:09:24;;;;;;;1.55;0.60;;;;;;;;;;5023706;28;20152;-56
2022/04/08 07:12:05;;;;;;;2.47;1.00;;;;;;;;;;5033558;28;20029;-56
2022/04/08 07:14:58;;;;;;;1.63;0.93;;;;;;;;;;5035496;28;20039;-54
2022/04/08 07:27:09;;;;;;;0.80;0.45;;;;;;;;;;5030915;28;20029;-56
2022/04/08 07:30:11;;;;;;;;;;;;;;;;;;;;;
2022/04/08 07:36:05;;;;;;;4.95;0.93;;;;;;;;;;4973633;28;20072;-56
2022/04/08 07:38:50;;;;;;;0.90;0.50;;;;;;;;;;5032182;28;20162;-52
2022/04/08 07:41:29;;;;;;;2.53;0.80;;;;;;;;;;4971542;28;20517;-56
2022/04/08 07:44:12;;;;;;;1.83;0.85;;;;;;;;;;4957165;28;20045;-56
2022/04/08 07:46:43;;;;;;;1.38;0.50;;;;;;;;;;4955237;28;20621;-55
2022/04/08 07:49:21;;;;;;;2.05;0.70;;;;;;;;;;4966772;28;20046;-53
2022/04/08 07:51:54;;;;;;;3.67;0.60;;;;;;;;;;4971612;28;20074;-55
2022/04/08 07:54:43;;;;;;;1.60;0.50;;;;;;;;;;4970716;28;20130;-55
2022/04/08 08:00:19;;;;;;;;;;;;;;;;;;;;;
2022/04/08 08:02:59;;;;;;;;;;;;;;;;;;;;;
2022/04/08 08:05:57;;;;;;;4.33;1.27;;;;;;;;;;4972090;28;20407;-52
2022/04/08 08:14:47;;;;;;;5.13;0.85;;;;;;;;;;5030001;28;20119;-55
2022/04/08 08:17:39;;;;;;;3.63;0.60;;;;;;;;;;5021664;28;20368;-54
2022/04/08 08:20:19;;;;;;;4.78;0.85;;;;;;;;;;4969946;28;20596;-53
2022/04/08 08:22:49;;;;;;;1.85;0.52;;;;;;;;;;5029898;28;20025;-56
2022/04/08 08:25:42;;;;;;;4.28;0.82;;;;;;;;;;5030866;28;20040;-56
2022/04/08 08:28:26;;;;;;;3.33;2.13;;;;;;;;;;5020037;28;20107;-57
2022/04/08 08:31:11;;;;;;;1.13;0.70;;;;;;;;;;5029432;28;20132;-56
2022/04/08 08:33:50;;;;;;;0.73;0.40;;;;;;;;;;5027937;28;20029;-50
2022/04/08 08:36:35;;;;;;;3.35;1.10;;;;;;;;;;4966920;28;20349;-55
2022/04/08 08:42:48;;;;;;;;;;;;;;;;;;;;;
2022/04/08 08:46:02;;;;;;;2.47;0.80;;;;;;;;;;5000092;28;20407;-56
2022/04/08 08:48:51;;;;;;;1.05;0.40;;;;;;;;;;5030448;28;20033;-55
2022/04/08 08:51:39;;;;;;;2.97;0.50;;;;;;;;;;5032253;28;20079;-52
2022/04/08 08:57:36;;;;;;;5.63;3.45;;;;;;;;;;5026366;28;20072;-53
2022/04/08 09:03:29;;;;;;;;;;;;;;;;;;;;;
2022/04/08 09:06:17;;;;;;;;;;;;;;;;;;;;;
2022/04/08 09:08:57;;;;;;;3.50;1.00;;;;;;;;;;5030179;28;20124;-56
2022/04/08 09:11:42;;;;;;;1.58;0.85;;;;;;;;;;5030510;28;20040;-53
2022/04/08 09:17:41;;;;;;;1.65;0.75;;;;;;;;;;5022783;28;20042;-55
2022/04/08 09:23:34;;;;;;;1.27;0.57;;;;;;;;;;5028195;28;20030;-55
2022/04/08 09:32:47;;;;;;;1.70;0.68;;;;;;;;;;5024639;28;20117;-54
2022/04/08 09:35:29;;;;;;;2.08;0.57;;;;;;;;;;5006310;28;20522;-54
2022/04/08 09:41:39;;;;;;;1.00;0.30;;;;;;;;;;4959058;28;20052;-55
2022/04/08 09:44:43;;;;;;;0.63;0.25;;;;;;;;;;4987455;28;20022;-54
2022/04/08 09:47:39;;;;;;;1.00;0.40;;;;;;;;;;4954715;28;20494;-56
2022/04/08 09:56:31;;;;;;;3.08;0.40;;;;;;;;;;4932221;29;20036;-54
2022/04/08 09:59:16;;;;;;;0.40;0.20;;;;;;;;;;4996665;28;20488;-56
2022/04/08 10:02:09;;;;;;;1.63;0.60;;;;;;;;;;5031109;28;20010;-56
2022/04/08 10:04:51;;;;;;;1.33;0.25;;;;;;;;;;5016676;28;20529;-53
2022/04/08 10:07:28;;;;;;;0.70;0.32;;;;;;;;;;5034006;28;20269;-56
2022/04/08 10:10:14;;;;;;;;;;;;;;;;;;;;;
2022/04/08 10:13:09;;;;;;;1.73;0.73;;;;;;;;;;5031382;28;20357;-57
2022/04/08 10:16:10;;;;;;;0.35;0.28;;;;;;;;;;5034266;28;20394;-57
2022/04/08 10:19:24;;;;;;;0.32;0.15;;;;;;;;;;4969481;28;20559;-56
2022/04/08 10:25:10;;;;;;;1.90;0.50;;;;;;;;;;5029315;28;20049;-57
2022/04/08 10:27:51;;;;;;;0.47;0.20;;;;;;;;;;5032737;28;20386;-59
2022/04/08 10:33:33;;;;;;;3.05;0.40;;;;;;;;;;5034036;28;20338;-59
2022/04/08 10:36:22;;;;;;;0.50;0.20;;;;;;;;;;5034259;28;20022;-57
2022/04/08 10:42:23;;;;;;;;;;;;;;;;;;;;;
2022/04/08 10:45:13;;;;;;;1.25;0.60;;;;;;;;;;5023265;28;20033;-58
2022/04/08 10:48:00;;;;;;;0.52;0.25;;;;;;;;;;4986077;28;20030;-57
2022/04/08 10:54:02;;;;;;;0.82;0.32;;;;;;;;;;4972720;28;20447;-56
2022/04/08 10:59:47;;;;;;;0.70;0.38;;;;;;;;;;4971156;28;20409;-57
2022/04/08 11:02:43;;;;;;;1.40;0.55;;;;;;;;;;5025338;28;20037;-58
2022/04/08 11:05:24;;;;;;;0.52;0.38;;;;;;;;;;5032343;28;20360;-56
2022/04/08 11:08:10;;;;;;;1.00;0.40;;;;;;;;;;5032094;28;20418;-58
2022/04/08 11:11:05;;;;;;;0.60;0.32;;;;;;;;;;5027032;28;20467;-58
2022/04/08 11:14:00;;;;;;;0.90;0.55;;;;;;;;;;5032992;28;20057;-58
2022/04/08 11:16:44;;;;;;;0.77;0.30;;;;;;;;;;5031487;28;20034;-56
2022/04/08 11:19:22;;;;;;;0.88;0.45;;;;;;;;;;4990679;28;20064;-58
2022/04/08 11:22:19;;;;;;;;;;;;;;;;;;;;;
2022/04/08 11:24:49;;;;;;;4.85;0.73;;;;;;;;;;4975935;28;20057;-58
2022/04/08 11:39:47;;;;;;;3.28;1.10;;;;;;;;;;4891089;29;20498;-52
2022/04/08 11:42:16;;;;;;;1.85;0.82;;;;;;;;;;5011401;28;20030;-55
2022/04/08 11:45:04;;;;;;;6.43;1.52;;;;;;;;;;5037845;28;20051;-56
2022/04/08 11:47:45;;;;;;;2.05;0.75;;;;;;;;;;4981331;28;20037;-56
2022/04/08 11:53:32;;;;;;;;;;;;;;;;;;;;;
2022/04/08 11:56:21;;;;;;;1.88;1.00;;;;;;;;;;5032600;28;19909;-55
2022/04/08 11:59:10;;;;;;;2.50;1.20;;;;;;;;;;4975879;28;20050;-55
2022/04/08 12:05:06;;;;;;;;;;;;;;;;;;;;;
2022/04/08 12:08:02;;;;;;;1.58;1.30;;;;;;;;;;5030319;28;20866;-56
2022/04/08 12:10:49;;;;;;;3.80;1.08;;;;;;;;;;4984788;28;20545;-56
2022/04/08 12:20:06;;;;;;;1.52;0.95;;;;;;;;;;4915867;29;20107;-53
2022/04/08 12:29:09;;;;;;;2.13;1.50;;;;;;;;;;4880263;29;20037;-55
2022/04/08 12:32:09;;;;;;;2.95;1.70;;;;;;;;;;4925626;28;20095;-57
2022/04/08 12:35:07;;;;;;;;;;;;;;;;;;;;;
2022/04/08 12:37:52;;;;;;;;;;;;;;;;;;;;;
2022/04/08 12:40:30;;;;;;;;;;;;;;;;;;;;;
2022/04/08 12:43:35;;;;;;;;;;;;;;;;;;;;;
2022/04/08 12:46:13;;;;;;;1.33;0.80;;;;;;;;;;5024087;28;20426;-54
2022/04/08 12:49:07;;;;;;;2.53;1.20;;;;;;;;;;5028559;28;20491;-55
2022/04/08 12:52:08;;;;;;;1.27;0.82;;;;;;;;;;5033133;28;20129;-55
2022/04/08 12:55:17;;;;;;;2.55;1.58;;;;;;;;;;5012367;28;20033;-57
2022/04/08 12:57:58;;;;;;;2.00;1.33;;;;;;;;;;5013322;28;20030;-57
2022/04/08 13:00:45;;;;;;;1.88;1.10;;;;;;;;;;5015644;28;20145;-54
2022/04/08 13:03:29;;;;;;;2.20;1.50;;;;;;;;;;5014600;28;20475;-54
2022/04/08 13:06:28;;;;;;;2.05;1.13;;;;;;;;;;5021225;28;20037;-56
2022/04/08 13:14:58;;;;;;;2.58;1.27;;;;;;;;;;5035040;28;20478;-57
2022/04/08 13:17:41;;;;;;;;;;;;;;;;;;;;;
2022/04/08 13:23:12;;;;;;;2.40;1.52;;;;;;;;;;5031388;28;20025;-55
2022/04/08 13:25:41;;;;;;;2.20;1.52;;;;;;;;;;5016417;28;20037;-57
2022/04/08 13:28:24;;;;;;;2.88;1.60;;;;;;;;;;5022022;28;20479;-56
2022/04/08 13:31:11;;;;;;;4.00;1.63;;;;;;;;;;5020024;28;20030;-54
2022/04/08 13:33:53;;;;;;;5.68;1.75;;;;;;;;;;5032678;28;20037;-54
2022/04/08 13:36:50;;;;;;;2.97;2.05;;;;;;;;;;5016393;28;20483;-54
2022/04/08 13:48:58;;;;;;;2.25;1.77;;;;;;;;;;4988194;28;20096;-56
2022/04/08 13:55:18;;;;;;;2.95;2.08;;;;;;;;;;5012650;28;20433;-56
2022/04/08 14:01:33;;;;;;;;;;;;;;;;;;;;;
2022/04/08 14:04:10;;;;;;;3.53;2.60;;;;;;;;;;5038976;28;20444;-59
2022/04/08 14:06:59;;;;;;;3.00;2.10;;;;;;;;;;5033948;28;20120;-57
2022/04/08 14:09:54;;;;;;;3.08;2.17;;;;;;;;;;5000827;28;20548;-59
2022/04/08 14:12:33;;;;;;;3.72;2.97;;;;;;;;;;5024665;28;20044;-59
2022/04/08 14:15:15;;;;;;;5.50;4.97;;;;;;;;;;5034576;28;20116;-59
2022/04/08 14:18:18;;;;;;;4.88;3.58;;;;;;;;;;5032620;28;20501;-59
2022/04/08 14:20:54;;;;;;;5.38;4.45;;;;;;;;;;5034319;28;20033;-57
2022/04/08 14:23:51;;;;;;;7.57;6.78;;;;;;;;;;5035269;28;20068;-59
2022/04/08 14:26:26;;;;;;;4.03;2.90;;;;;;;;;;5005460;28;20514;-59
2022/04/08 14:32:08;;;;;;;3.90;3.05;;;;;;;;;;5016625;28;20490;-57
2022/04/08 14:34:48;;;;;;;4.40;3.17;;;;;;;;;;5016178;28;20029;-57
2022/04/08 14:37:52;;;;;;;3.63;2.25;;;;;;;;;;5031477;28;20564;-59
2022/04/08 14:40:41;;;;;;;5.03;3.03;;;;;;;;;;5027057;28;20514;-58
2022/04/08 14:43:20;;;;;;;3.20;2.30;;;;;;;;;;5008660;28;20136;-58
2022/04/08 14:46:03;;;;;;;4.13;2.80;;;;;;;;;;5015472;28;20503;-58
2022/04/08 14:48:56;;;;;;;3.80;1.85;;;;;;;;;;5005576;28;20037;-59
2022/04/08 14:51:45;;;;;;;2.08;1.27;;;;;;;;;;5017931;28;20094;-54
2022/04/08 14:54:48;;;;;;;3.80;0.80;;;;;;;;;;4996757;28;20044;-54
2022/04/08 15:00:46;;;;;;;1.42;0.60;;;;;;;;;;4925004;29;20036;-57
2022/04/08 15:03:27;;;;;;;1.10;0.60;;;;;;;;;;4908022;29;20036;-57
2022/04/08 15:12:21;;;;;;;;;;;;;;;;;;;;;
2022/04/08 15:17:43;;;;;;;2.13;0.93;;;;;;;;;;5005734;28;20037;-51
2022/04/08 15:20:27;;;;;;;1.65;0.73;;;;;;;;;;5032511;28;20044;-56
2022/04/08 15:22:59;;;;;;;1.70;0.68;;;;;;;;;;5033074;28;20108;-55
2022/04/08 15:25:35;;;;;;;1.48;0.70;;;;;;;;;;5012995;28;20081;-56
2022/04/08 15:28:11;;;;;;;0.98;0.57;;;;;;;;;;5028500;28;20069;-53
2022/04/08 15:31:22;;;;;;;1.17;0.40;;;;;;;;;;5032014;28;20049;-53
2022/04/08 15:34:01;;;;;;;1.38;0.52;;;;;;;;;;4930539;29;20125;-54
2022/04/08 15:37:08;;;;;;;1.33;0.85;;;;;;;;;;4951369;29;20159;-56
2022/04/08 15:43:20;;;;;;;0.90;0.55;;;;;;;;;;4891132;29;20147;-56
2022/04/08 15:51:54;;;;;;;1.40;0.52;;;;;;;;;;4954724;28;20037;-55
2022/04/08 16:06:58;;;;;;;1.83;0.57;;;;;;;;;;4989314;28;20033;-56
2022/04/08 16:09:36;;;;;;;0.85;0.50;;;;;;;;;;5030044;28;20464;-56
2022/04/08 16:12:29;;;;;;;2.65;1.13;;;;;;;;;;4975703;28;20033;-55
2022/04/08 16:15:37;;;;;;;0.77;0.38;;;;;;;;;;5030474;28;20034;-56
2022/04/08 16:21:14;;;;;;;2.58;0.30;;;;;;;;;;4971578;28;20072;-54
2022/04/08 16:24:09;;;;;;;;;;;;;;;;;;;;;
2022/04/08 16:26:44;;;;;;;1.65;0.70;;;;;;;;;;5030049;28;20030;-56
2022/04/08 16:39:00;;;;;;;1.63;0.70;;;;;;;;;;5029109;28;20491;-56
2022/04/08 16:41:32;;;;;;;1.15;0.70;;;;;;;;;;5032554;28;20495;-53
2022/04/08 16:47:24;;;;;;;2.08;0.70;;;;;;;;;;5028686;28;20033;-56
2022/04/08 16:53:33;;;;;;;1.60;0.90;;;;;;;;;;4987531;28;20045;-54
2022/04/08 16:56:08;;;;;;;;;;;;;;;;;;5034511;28;20048;-57
2022/04/08 16:59:04;;;;;;;1.52;0.57;;;;;;;;;;5032327;28;20337;-56
2022/04/08 17:01:49;;;;;;;1.00;0.57;;;;;;;;;;4994771;28;20503;-54
2022/04/08 17:04:18;;;;;;;1.60;0.85;;;;;;;;;;5013463;28;20026;-56
2022/04/08 17:07:03;;;;;;;3.15;0.82;;;;;;;;;;5015648;28;20041;-56
2022/04/08 17:09:42;;;;;;;1.60;0.90;;;;;;;;;;5015413;28;20589;-57
2022/04/08 17:12:33;;;;;;;1.23;0.82;;;;;;;;;;5013804;28;20617;-57
2022/04/08 17:18:47;;;;;;;1.23;0.70;;;;;;;;;;4953635;28;20068;-57
2022/04/08 17:21:28;;;;;;;1.05;0.52;;;;;;;;;;5033661;28;20068;-57
2022/04/08 17:24:12;;;;;;;1.27;0.70;;;;;;;;;;5033323;28;20706;-56
2022/04/08 17:27:03;;;;;;;;;;;;;;;;;;;;;
2022/04/08 17:29:47;;;;;;;1.23;0.65;;;;;;;;;;5032679;28;20041;-57
2022/04/08 17:32:43;;;;;;;1.08;0.60;;;;;;;;;;5033225;28;20040;-57
2022/04/08 17:44:40;;;;;;;1.63;1.25;;;;;;;;;;5032044;28;20083;-57
2022/04/08 17:47:53;;;;;;;2.33;1.52;;;;;;;;;;5032235;28;20607;-56
2022/04/08 17:50:39;;;;;;;4.00;1.33;;;;;;;;;;5014281;28;20045;-57
2022/04/08 17:53:25;;;;;;;1.88;1.35;;;;;;;;;;4991018;28;20044;-55
2022/04/08 17:59:08;;;;;;;3.13;2.25;;;;;;;;;;4950901;29;20047;-55
2022/04/08 18:01:55;;;;;;;2.90;2.10;;;;;;;;;;4950199;29;20154;-57
2022/04/08 18:04:42;;;;;;;;;;;;;;;;;;;;;
2022/04/08 18:16:57;;;;;;;3.17;2.22;;;;;;;;;;4990447;28;20508;-55
2022/04/08 18:19:33;;;;;;;5.40;4.13;;;;;;;;;;5005170;28;20095;-55
2022/04/08 18:22:24;;;;;;;6.45;4.03;;;;;;;;;;4978477;28;20041;-55
2022/04/08 18:25:26;;;;;;;3.60;3.17;;;;;;;;;;5025948;28;20562;-57
2022/04/08 18:28:12;;;;;;;;;;;;;;;;;;;;;
2022/04/08 18:31:13;;;;;;;;;;;;;;;;;;;;;
2022/04/08 18:33:50;;;;;;;;;;;;;;;;;;5018754;28;20033;-55
2022/04/08 18:36:26;;;;;;;11.10;7.53;;;;;;;;;;5012056;28;19909;-57
2022/04/08 18:39:24;;;;;;;8.20;7.03;;;;;;;;;;5017426;28;20049;-57
2022/04/08 18:42:10;;;;;;;9.30;7.38;;;;;;;;;;5036964;28;20037;-57
2022/04/08 18:47:52;;;;;;;10.23;9.20;;;;;;;;;;4993620;28;20034;-58
2022/04/08 18:50:47;;;;;;;;;;;;;;;;;;;;;
2022/04/08 18:56:40;;;;;;;19.20;16.70;;;;;;;;;;5035143;28;20040;-53
2022/04/08 18:59:21;;;;;;;13.43;11.60;;;;;;;;;;5015038;28;20487;-57
2022/04/08 19:04:39;;;;;;;11.38;10.27;;;;;;;;;;5034241;28;19959;-55
2022/04/08 19:07:36;;;;;;;11.05;9.88;;;;;;;;;;5011349;28;20833;-57
2022/04/08 19:10:26;;;;;;;13.57;9.15;;;;;;;;;;5032792;28;20471;-57
2022/04/08 19:16:18;;;;;;;10.93;9.23;;;;;;;;;;5026174;28;20057;-54
2022/04/08 19:19:16;;;;;;;;;;;;;;;;;;;;;
2022/04/08 19:25:03;;;;;;;7.78;6.25;;;;;;;;;;5032324;28;20569;-55
2022/04/08 19:27:41;;;;;;;6.60;5.97;;;;;;;;;;5030429;28;20491;-58
2022/04/08 19:30:45;;;;;;;6.32;5.72;;;;;;;;;;5021481;28;20037;-55
2022/04/08 19:36:22;;;;;;;;;;;;;;;;;;;;;
2022/04/08 19:38:58;;;;;;;6.72;3.97;;;;;;;;;;4954899;28;20310;-57
2022/04/08 19:41:43;;;;;;;9.30;4.25;;;;;;;;;;4972462;28;20227;-57
2022/04/08 19:44:44;;;;;;;4.18;3.78;;;;;;;;;;4973110;28;20484;-57
2022/04/08 19:47:28;;;;;;;4.28;3.42;;;;;;;;;;4982277;28;20050;-58
2022/04/08 19:50:06;;;;;;;4.75;2.95;;;;;;;;;;5013629;28;20040;-57
2022/04/08 19:58:59;;;;;;;8.07;6.10;;;;;;;;;;4994067;28;20045;-55
2022/04/08 20:01:44;;;;;;;7.55;4.15;;;;;;;;;;5024226;28;20041;-56
2022/04/08 20:04:25;;;;;;;9.85;5.55;;;;;;;;;;5033472;28;20049;-56
2022/04/08 20:10:21;;;;;;;7.45;6.65;;;;;;;;;;4977769;28;20041;-57
2022/04/08 20:13:00;;;;;;;5.05;3.72;;;;;;;;;;5014895;28;20037;-57
2022/04/08 20:15:33;;;;;;;4.00;3.00;;;;;;;;;;5033288;28;20448;-58
2022/04/08 20:18:15;;;;;;;5.22;4.22;;;;;;;;;;5032081;28;20038;-57
2022/04/08 20:21:00;;;;;;;5.88;4.40;;;;;;;;;;5033317;28;20037;-57
2022/04/08 20:24:13;;;;;;;5.57;4.38;;;;;;;;;;5031463;28;20140;-56
2022/04/08 20:26:42;;;;;;;8.38;5.82;;;;;;;;;;4971751;28;20035;-56
2022/04/08 20:32:22;;;;;;;9.80;6.85;;;;;;;;;;5018003;28;20033;-56
2022/04/08 20:35:16;;;;;;;6.10;5.55;;;;;;;;;;5013849;28;20248;-58
2022/04/08 20:47:44;;;;;;;2.33;1.75;;;;;;;;;;4987614;28;20093;-54
2022/04/08 20:53:30;;;;;;;2.80;1.85;;;;;;;;;;4910394;29;20039;-57
2022/04/08 20:56:30;;;;;;;4.25;1.27;;;;;;;;;;4902628;29;20032;-57
2022/04/08 20:59:01;;;;;;;2.13;1.15;;;;;;;;;;4909098;29;20066;-57
2022/04/08 21:01:53;;;;;;;1.48;0.88;;;;;;;;;;4959155;28;20054;-58
2022/04/08 21:04:42;;;;;;;1.42;0.80;;;;;;;;;;5016941;28;20105;-57
2022/04/08 21:07:41;;;;;;;1.08;0.70;;;;;;;;;;5022603;28;20056;-57
2022/04/08 21:10:36;;;;;;;1.35;0.77;;;;;;;;;;5020081;28;20069;-56
2022/04/08 21:13:35;;;;;;;1.92;0.90;;;;;;;;;;5022824;28;20030;-57
2022/04/08 21:16:12;;;;;;;1.50;0.65;;;;;;;;;;5012494;28;20045;-56
2022/04/08 21:21:45;;;;;;;1.30;0.50;;;;;;;;;;5023744;28;20041;-55
2022/04/08 21:27:42;;;;;;;1.05;0.68;;;;;;;;;;4985006;28;20423;-54
2022/04/08 21:37:16;;;;;;;1.17;0.60;;;;;;;;;;4923932;29;20040;-58
2022/04/08 21:40:14;;;;;;;1.05;0.68;;;;;;;;;;4908666;29;20052;-58
2022/04/08 21:43:07;;;;;;;1.77;1.02;;;;;;;;;;5009230;28;20026;-57
2022/04/08 21:45:43;;;;;;;1.98;1.17;;;;;;;;;;5026599;28;20106;-58
2022/04/08 21:48:28;;;;;;;2.33;1.20;;;;;;;;;;5003326;28;20041;-57
2022/04/08 21:51:18;;;;;;;1.30;0.77;;;;;;;;;;5004613;28;20031;-55
2022/04/08 21:53:48;;;;;;;1.98;1.35;;;;;;;;;;5005458;28;20101;-53
2022/04/08 21:56:17;;;;;;;;;;;;;;;;;;5006212;28;20077;-55
2022/04/08 21:59:13;;;;;;;1.77;0.88;;;;;;;;;;5003906;28;19906;-56
2022/04/08 22:02:01;;;;;;;3.20;1.48;;;;;;;;;;4984487;28;20050;-56
2022/04/08 22:04:49;;;;;;;2.47;1.80;;;;;;;;;;5005564;28;20035;-56
2022/04/08 22:07:50;;;;;;;2.13;1.60;;;;;;;;;;5004941;28;20033;-54
2022/04/08 22:10:53;;;;;;;2.35;1.90;;;;;;;;;;5025880;28;20084;-56
2022/04/08 22:17:01;;;;;;;1.83;1.10;;;;;;;;;;4985125;28;20039;-56
2022/04/08 22:19:54;;;;;;;2.38;1.55;;;;;;;;;;4984540;28;20054;-56
2022/04/08 22:25:46;;;;;;;1.37;0.77;;;;;;;;;;4985893;28;20042;-55
2022/04/08 22:28:43;;;;;;;1.17;0.63;;;;;;;;;;4966257;28;20059;-52
2022/04/08 22:31:21;;;;;;;1.17;0.63;;;;;;;;;;4986039;28;20045;-55
2022/04/08 22:34:06;;;;;;;1.77;1.23;;;;;;;;;;5011153;28;20046;-52
2022/04/08 22:37:11;;;;;;;1.87;0.97;;;;;;;;;;5026435;28;20030;-53
2022/04/08 22:39:58;;;;;;;2.17;0.83;;;;;;;;;;5016797;28;20060;-50
2022/04/08 22:42:57;;;;;;;1.00;0.60;;;;;;;;;;5027284;28;20018;-53
2022/04/08 22:45:35;;;;;;;0.33;0.30;;;;;;;;;;4943928;29;20055;-52
2022/04/08 22:48:40;;;;;;;0.73;0.50;;;;;;;;;;4977458;28;20052;-54
2022/04/08 22:51:51;;;;;;;2.47;0.90;;;;;;;;;;4977038;28;20049;-50
2022/04/08 22:54:36;;;;;;;2.83;0.60;;;;;;;;;;5024403;28;20069;-53
2022/04/08 22:57:24;;;;;;;0.40;0.30;;;;;;;;;;5025519;28;20487;-54
2022/04/08 23:03:25;;;;;;;0.10;0.10;;;;;;;;;;5026326;28;20136;-56
2022/04/08 23:06:19;;;;;;;0.90;0.47;;;;;;;;;;4974394;28;20041;-53
2022/04/08 23:09:07;;;;;;;0.50;0.40;;;;;;;;;;5025242;28;20033;-53
2022/04/08 23:11:55;;;;;;;0.20;0.20;;;;;;;;;;5023690;28;20052;-52
2022/04/08 23:15:11;;;;;;;;;;;;;;;;;;;;;
2022/04/08 23:17:51;;;;;;;0.10;0.10;;;;;;;;;;5020461;28;20034;-54
2022/04/08 23:20:52;;;;;;;0.20;0.10;;;;;;;;;;5027102;28;20065;-55
2022/04/08 23:23:48;;;;;;;0.00;0.00;;;;;;;;;;4966618;29;20043;-55
2022/04/08 23:26:47;;;;;;;0.00;0.00;;;;;;;;;;4950957;28;20446;-56
2022/04/08 23:29:35;;;;;;;0.10;0.10;;;;;;;;;;4965817;29;20039;-56
2022/04/08 23:32:24;;;;;;;0.00;0.00;;;;;;;;;;4967030;29;20042;-55
2022/04/08 23:34:54;;;;;;;0.10;0.10;;;;;;;;;;5027618;28;20050;-55
2022/04/08 23:40:22;;;;;;;0.13;0.13;;;;;;;;;;4986384;28;20298;-56
2022/04/08 23:43:19;;;;;;;0.10;0.10;;;;;;;;;;4986627;28;20093;-56